Bay Shore, Michigan
Current Conditions -  °F | °C
As of 5:15 AM on Sunday 25 Jan 2015 (Local Time) from KCVX Reporting Station
Clear Clear  
Wind Chill: -2°   Ceiling: Unl
Heat Index:   Visibility: 10mi
Dew Point:   Wind: 7mph
Humidity: 68%   Direction: 50°NE
Pressure: 29.94"   Gusts: NA
Location:  45.36°N, 85.1°W
Report Text: KCVX 251015Z AUTO 05006KT 10SM CLR M13/M17 A2994 RMK AO2 T11271175
Loading
Personal Weather Stations






























Interactive Weather Map New forecast layout! Learn more

10-Day Weather Forecast

Advertisements
Track Severe Weather on mobile